Time;durP1;ratioP1;P1;durP2;ratioP2;P2;SDS_P1;SDS_P2;PMS_P1;PMS_P2;Temp;Humidity;BMP_temperature;BMP_pressure;BME280_temperature;BME280_humidity;BME280_pressure;Samples;Min_cycle;Max_cycle;Signal;HPM_P1;HPM_P2
2021/12/24 00:01:25;;;;;;;13.17;8.30;;;8.80;98.50;;;;;;5046597;28;20479;-46
2021/12/24 00:03:51;;;;;;;18.10;10.50;;;8.90;98.50;;;;;;5067907;28;20833;-47
2021/12/24 00:06:20;;;;;;;14.17;8.53;;;8.90;98.40;;;;;;5058849;28;20484;-48
2021/12/24 00:08:47;;;;;;;12.30;8.93;;;9.00;98.40;;;;;;5068282;28;20488;-46
2021/12/24 00:11:15;;;;;;;18.40;8.50;;;8.90;98.40;;;;;;5066415;28;20509;-49
2021/12/24 00:13:45;;;;;;;12.13;6.37;;;9.00;98.40;;;;;;5068521;28;20488;-52
2021/12/24 00:16:20;;;;;;;14.30;7.97;;;8.90;98.30;;;;;;5069689;28;20483;-46
2021/12/24 00:18:51;;;;;;;20.27;8.77;;;9.00;98.40;;;;;;5064498;28;20888;-46
2021/12/24 00:35:36;;;;;;;13.80;7.73;;;8.80;98.60;;;;;;5059769;27;20496;-46
2021/12/24 00:38:05;;;;;;;18.87;9.27;;;8.80;98.60;;;;;;5062202;27;20484;-47
2021/12/24 00:40:37;;;;;;;22.13;9.57;;;8.80;98.60;;;;;;5054969;27;20484;-47
2021/12/24 00:43:04;;;;;;;13.20;7.57;;;8.80;98.60;;;;;;5038339;28;20482;-47
2021/12/24 00:45:34;;;;;;;10.30;7.67;;;8.80;98.60;;;;;;5072774;27;20483;-47
2021/12/24 00:48:02;;;;;;;18.67;8.70;;;8.80;98.60;;;;;;5065923;27;20475;-47
2021/12/24 00:50:31;;;;;;;15.50;10.33;;;8.90;98.70;;;;;;5047654;28;20472;-47
2021/12/24 00:53:02;;;;;;;10.23;8.03;;;8.90;98.70;;;;;;5061761;27;20485;-47
2021/12/24 00:55:30;;;;;;;11.43;8.40;;;8.90;98.60;;;;;;5050381;28;20842;-47
2021/12/24 00:58:03;;;;;;;13.80;9.03;;;8.80;98.70;;;;;;5052497;27;20476;-47
2021/12/24 01:00:33;;;;;;;17.10;10.63;;;8.80;98.70;;;;;;5060383;27;20884;-47
2021/12/24 01:03:01;;;;;;;11.70;7.97;;;8.90;98.70;;;;;;5069960;28;20471;-47
2021/12/24 01:05:30;;;;;;;15.73;10.67;;;8.90;98.70;;;;;;5085983;28;21008;-47
2021/12/24 01:07:57;;;;;;;15.20;9.30;;;8.90;98.70;;;;;;5077099;27;20488;-47
2021/12/24 01:10:27;;;;;;;15.30;9.00;;;8.90;98.80;;;;;;5082376;28;20924;-47
2021/12/24 01:12:54;;;;;;;16.00;11.33;;;8.90;98.70;;;;;;5082228;28;20505;-47
2021/12/24 01:15:22;;;;;;;14.37;10.00;;;8.90;98.70;;;;;;5072954;28;20937;-46
2021/12/24 01:17:56;;;;;;;12.97;8.77;;;8.90;98.70;;;;;;5079640;28;20484;-48
2021/12/24 01:20:28;;;;;;;15.17;8.93;;;9.00;98.80;;;;;;5083325;28;20833;-47
2021/12/24 01:26:05;;;;;;;17.93;8.70;;;8.90;98.90;;;;;;5032910;27;20555;-47
2021/12/24 01:28:49;;;;;;;17.93;10.27;;;9.00;98.80;;;;;;5043277;28;20488;-47
2021/12/24 01:39:41;;;;;;;14.27;9.90;;;9.00;98.90;;;;;;5038141;28;20512;-47
2021/12/24 01:44:55;;;;;;;15.10;9.83;;;9.10;98.90;;;;;;5027734;28;20500;-47
2021/12/24 01:47:22;;;;;;;19.07;11.27;;;9.00;98.90;;;;;;5033314;28;20489;-47
2021/12/24 01:49:48;;;;;;;10.40;8.20;;;9.10;98.90;;;;;;5036750;28;20492;-47
2021/12/24 01:52:16;;;;;;;18.23;9.17;;;9.00;99.00;;;;;;5036406;28;20494;-47
2021/12/24 01:54:43;;;;;;;14.93;10.33;;;9.10;99.10;;;;;;5037878;28;20479;-47
2021/12/24 01:57:12;;;;;;;19.27;12.50;;;9.10;99.10;;;;;;5035414;28;20485;-47
2021/12/24 01:59:39;;;;;;;19.87;11.63;;;9.00;99.20;;;;;;5040488;28;20483;-47
2021/12/24 02:02:05;;;;;;;16.00;11.70;;;9.00;99.30;;;;;;5029815;28;20574;-48
2021/12/24 02:04:33;;;;;;;17.57;12.00;;;9.00;99.60;;;;;;5051908;28;21024;-47
2021/12/24 02:06:59;;;;;;;12.70;9.90;;;8.90;99.80;;;;;;5031640;28;20477;-47
2021/12/24 02:09:26;;;;;;;20.03;12.43;;;8.90;99.90;;;;;;5032766;28;20493;-47
2021/12/24 02:11:53;;;;;;;14.17;11.00;;;8.90;99.90;;;;;;5045959;28;20473;-47
2021/12/24 02:14:22;;;;;;;20.10;10.40;;;8.80;99.90;;;;;;5033944;28;20493;-47
2021/12/24 02:30:25;;;;;;;17.30;11.27;;;8.80;99.90;;;;;;5026640;28;20491;-47
2021/12/24 02:32:52;;;;;;;17.80;11.00;;;8.80;99.90;;;;;;5049487;28;21057;-47
2021/12/24 02:35:20;;;;;;;16.40;11.00;;;8.80;99.90;;;;;;5033839;28;20495;-48
2021/12/24 02:37:50;;;;;;;12.27;9.63;;;8.80;99.90;;;;;;5019838;28;20974;-47
2021/12/24 02:40:18;;;;;;;18.60;11.13;;;8.70;99.90;;;;;;5025821;28;20873;-48
2021/12/24 02:42:49;;;;;;;11.77;8.17;;;8.70;99.90;;;;;;5019543;28;20472;-47
2021/12/24 02:45:16;;;;;;;21.10;15.10;;;8.80;99.90;;;;;;5027086;28;20600;-47
2021/12/24 02:47:57;;;;;;;22.83;15.03;;;8.70;99.90;;;;;;5020121;28;20492;-47
2021/12/24 02:55:55;;;;;;;21.30;13.80;;;8.60;99.90;;;;;;5020848;28;20505;-47
2021/12/24 02:58:22;;;;;;;18.47;12.87;;;8.50;99.90;;;;;;5021504;28;20550;-48
2021/12/24 03:00:49;;;;;;;20.17;12.80;;;8.50;99.90;;;;;;5023805;28;20543;-48
2021/12/24 03:03:16;;;;;;;22.50;15.40;;;8.60;99.90;;;;;;5021189;28;20484;-51
2021/12/24 03:05:43;;;;;;;25.03;13.37;;;8.50;99.90;;;;;;5018111;28;20485;-47
2021/12/24 03:08:11;;;;;;;23.67;12.23;;;8.50;99.90;;;;;;5024047;28;20989;-48
2021/12/24 03:10:38;;;;;;;20.97;13.03;;;8.50;99.90;;;;;;5019926;28;20511;-47
2021/12/24 03:13:05;;;;;;;19.30;13.40;;;8.50;99.90;;;;;;5023387;28;20489;-48
2021/12/24 03:15:32;;;;;;;21.07;11.47;;;8.50;99.90;;;;;;5022211;28;20741;-48
2021/12/24 03:18:00;;;;;;;24.20;13.10;;;8.60;99.90;;;;;;5021170;28;20485;-47
2021/12/24 03:20:32;;;;;;;17.30;13.50;;;8.60;99.90;;;;;;5012221;28;21063;-48
2021/12/24 03:23:08;;;;;;;19.57;15.13;;;8.60;99.90;;;;;;5033196;28;20983;-48
2021/12/24 03:25:37;;;;;;;17.27;10.70;;;8.50;99.90;;;;;;5025219;28;20481;-48
2021/12/24 03:28:04;;;;;;;17.90;12.60;;;8.60;99.90;;;;;;5019759;28;20496;-48
2021/12/24 03:30:32;;;;;;;18.87;10.63;;;8.70;99.90;;;;;;5020713;28;21025;-48
2021/12/24 03:32:59;;;;;;;13.63;10.30;;;8.70;99.90;;;;;;5023583;28;20493;-47
2021/12/24 03:35:25;;;;;;;20.23;11.77;;;8.70;99.90;;;;;;5019497;28;20920;-47
2021/12/24 03:37:52;;;;;;;17.97;9.90;;;8.70;99.90;;;;;;5029251;28;20550;-48
2021/12/24 03:40:19;;;;;;;19.07;11.80;;;8.70;99.90;;;;;;5020875;28;20486;-48
2021/12/24 03:42:47;;;;;;;12.97;10.63;;;8.70;99.90;;;;;;5012912;28;20570;-48
2021/12/24 03:45:24;;;;;;;11.53;7.67;;;8.60;99.90;;;;;;5020362;28;20493;-51
2021/12/24 03:47:57;;;;;;;12.97;8.20;;;8.60;99.90;;;;;;5007022;28;21209;-48
2021/12/24 03:50:28;;;;;;;17.30;10.20;;;8.60;99.90;;;;;;5035082;28;20928;-48
2021/12/24 03:54:55;;;;;;;14.50;10.17;;;8.60;99.90;;;;;;5016224;28;21216;-48
2021/12/24 03:55:50;;;;;;;16.20;10.53;;;8.70;99.90;;;;;;5020390;28;20484;-47
2021/12/24 03:58:18;;;;;;;13.10;10.40;;;8.70;99.90;;;;;;5020856;28;20525;-48
2021/12/24 04:00:44;;;;;;;10.93;8.90;;;8.80;99.90;;;;;;5020005;28;20306;-47
2021/12/24 04:03:11;;;;;;;13.80;9.90;;;8.70;99.90;;;;;;5023350;28;20486;-48
2021/12/24 04:05:38;;;;;;;13.07;8.60;;;8.70;99.90;;;;;;5017414;28;20479;-48
2021/12/24 04:08:05;;;;;;;14.40;10.50;;;8.80;99.90;;;;;;5021564;28;20481;-47
2021/12/24 04:10:39;;;;;;;12.90;9.43;;;8.70;99.90;;;;;;5020104;28;20548;-47
2021/12/24 04:13:07;;;;;;;13.50;9.23;;;8.80;99.90;;;;;;5017886;28;20477;-47
2021/12/24 04:15:35;;;;;;;13.27;9.30;;;8.70;99.90;;;;;;5015669;28;20567;-47
2021/12/24 04:18:02;;;;;;;15.77;10.50;;;8.70;99.90;;;;;;5008964;28;20485;-47
2021/12/24 04:25:58;;;;;;;17.00;9.70;;;8.80;99.90;;;;;;5018040;28;20500;-47
2021/12/24 04:28:24;;;;;;;14.53;9.50;;;8.80;99.90;;;;;;5020610;28;20494;-48
2021/12/24 04:30:53;;;;;;;16.53;9.53;;;8.80;99.90;;;;;;5019442;28;20493;-47
2021/12/24 04:33:26;;;;;;;16.87;10.43;;;8.70;99.90;;;;;;5020822;28;20477;-47
2021/12/24 04:36:07;;;;;;;22.50;11.43;;;8.60;99.90;;;;;;5013916;28;20554;-47
2021/12/24 04:38:57;;;;;;;16.50;9.40;;;8.60;99.90;;;;;;5017615;28;20477;-47
2021/12/24 04:52:45;;;;;;;20.63;9.33;;;8.70;99.90;;;;;;5012468;28;20509;-48
2021/12/24 05:03:31;;;;;;;15.50;10.30;;;8.70;99.90;;;;;;5016776;28;20571;-47
2021/12/24 05:06:09;;;;;;;13.17;9.20;;;8.70;99.90;;;;;;5021415;28;20488;-48
2021/12/24 05:08:43;;;;;;;12.60;9.00;;;8.70;99.90;;;;;;5039483;28;20490;-48
2021/12/24 05:11:13;;;;;;;14.67;10.80;;;8.70;99.90;;;;;;5018910;28;20474;-47
2021/12/24 05:13:40;;;;;;;11.10;8.73;;;8.70;99.90;;;;;;5019020;28;20479;-48
2021/12/24 05:16:17;;;;;;;11.83;9.27;;;8.70;99.90;;;;;;5017754;28;20737;-47
2021/12/24 05:21:33;;;;;;;12.27;9.13;;;8.70;99.90;;;;;;5017500;28;20489;-47
2021/12/24 05:21:51;;;;;;;17.70;11.17;;;8.70;99.90;;;;;;5018827;28;20474;-48
2021/12/24 05:24:20;;;;;;;14.17;10.30;;;8.60;99.90;;;;;;5009105;28;20813;-48
2021/12/24 05:26:50;;;;;;;17.03;11.57;;;8.60;99.90;;;;;;5023986;28;20486;-47
2021/12/24 05:29:17;;;;;;;12.17;10.47;;;8.70;99.90;;;;;;5012278;28;20487;-47
2021/12/24 05:31:46;;;;;;;16.40;10.27;;;8.70;99.90;;;;;;5014327;28;20548;-48
2021/12/24 05:34:17;;;;;;;15.27;10.10;;;8.70;99.90;;;;;;5016729;28;20493;-48
2021/12/24 05:36:44;;;;;;;10.87;7.87;;;8.70;99.90;;;;;;5009037;28;20491;-47
2021/12/24 05:39:11;;;;;;;13.83;8.60;;;8.70;99.90;;;;;;5018836;28;20489;-48
2021/12/24 05:41:40;;;;;;;22.73;10.90;;;8.70;99.90;;;;;;5018712;28;20984;-47
2021/12/24 05:44:09;;;;;;;12.60;9.47;;;8.70;99.90;;;;;;5016620;28;20470;-48
2021/12/24 05:46:36;;;;;;;15.77;11.00;;;8.70;99.90;;;;;;5003196;28;20474;-48
2021/12/24 05:49:03;;;;;;;17.70;12.00;;;8.70;99.90;;;;;;5017018;28;20581;-48
2021/12/24 05:51:33;;;;;;;13.87;9.80;;;8.60;99.90;;;;;;5005832;28;20964;-47
2021/12/24 05:54:00;;;;;;;15.70;11.57;;;8.60;99.90;;;;;;5042067;28;20543;-47
2021/12/24 05:56:26;;;;;;;16.40;11.80;;;8.60;99.90;;;;;;5015276;28;20514;-48
2021/12/24 05:58:53;;;;;;;13.80;9.60;;;8.60;99.90;;;;;;5019926;28;20489;-48
2021/12/24 06:01:21;;;;;;;12.80;8.63;;;8.60;99.90;;;;;;5018692;28;20553;-48
2021/12/24 06:03:48;;;;;;;13.23;10.30;;;8.60;99.90;;;;;;5017736;28;20485;-47
2021/12/24 06:06:15;;;;;;;14.40;10.57;;;8.70;99.90;;;;;;5020495;28;20591;-50
2021/12/24 06:08:43;;;;;;;13.63;9.77;;;8.70;99.90;;;;;;5021823;28;20479;-48
2021/12/24 06:11:10;;;;;;;14.43;10.23;;;8.70;99.90;;;;;;5025321;28;20477;-47
2021/12/24 06:13:37;;;;;;;14.67;9.93;;;8.70;99.90;;;;;;5017879;28;20594;-47
2021/12/24 06:16:06;;;;;;;16.43;10.53;;;8.70;99.90;;;;;;5042823;28;20494;-47
2021/12/24 06:18:36;;;;;;;13.37;9.03;;;8.70;99.90;;;;;;5023806;28;20840;-47
2021/12/24 06:21:05;;;;;;;13.70;11.33;;;8.70;99.90;;;;;;5025814;28;20891;-48
2021/12/24 06:23:32;;;;;;;13.37;9.23;;;8.70;99.90;;;;;;5016547;28;20485;-47
2021/12/24 06:26:02;;;;;;;15.90;9.60;;;8.70;99.90;;;;;;5024463;28;20489;-48
2021/12/24 06:28:29;;;;;;;10.60;8.00;;;8.70;99.90;;;;;;5018960;28;20479;-48
2021/12/24 06:30:56;;;;;;;11.20;8.07;;;8.70;99.90;;;;;;5021105;28;20486;-47
2021/12/24 06:33:24;;;;;;;12.77;8.17;;;8.70;99.90;;;;;;5023381;28;20482;-47
2021/12/24 06:35:53;;;;;;;15.00;9.77;;;8.70;99.90;;;;;;5018915;28;20480;-48
2021/12/24 06:38:20;;;;;;;10.87;8.10;;;8.70;99.90;;;;;;5021826;28;20496;-47
2021/12/24 06:40:46;;;;;;;14.37;8.90;;;8.70;99.90;;;;;;5033639;28;20498;-48
2021/12/24 06:43:15;;;;;;;17.20;8.83;;;8.60;99.90;;;;;;5023373;28;20486;-47
2021/12/24 06:45:42;;;;;;;10.87;8.60;;;8.60;99.90;;;;;;5019935;28;20540;-47
2021/12/24 06:48:08;;;;;;;15.73;9.63;;;8.60;99.90;;;;;;5015618;28;20483;-47
2021/12/24 06:50:36;;;;;;;13.43;10.10;;;8.50;99.90;;;;;;5019948;28;20470;-47
2021/12/24 06:53:03;;;;;;;15.10;11.13;;;8.50;99.90;;;;;;5015753;28;20493;-47
2021/12/24 06:55:30;;;;;;;16.83;10.40;;;8.40;99.90;;;;;;5040321;28;20483;-47
2021/12/24 06:57:56;;;;;;;15.63;10.23;;;8.30;99.90;;;;;;5008305;28;20503;-47
2021/12/24 07:00:25;;;;;;;16.50;11.43;;;8.30;99.90;;;;;;5032006;28;20506;-47
2021/12/24 07:02:54;;;;;;;13.17;10.77;;;8.30;99.90;;;;;;5022368;28;20551;-48
2021/12/24 07:05:21;;;;;;;14.60;10.37;;;8.30;99.90;;;;;;5028410;28;20489;-48
2021/12/24 07:07:48;;;;;;;14.30;9.63;;;8.30;99.90;;;;;;5010149;28;20477;-47
2021/12/24 07:10:15;;;;;;;10.87;8.10;;;8.30;99.90;;;;;;5019416;28;21034;-48
2021/12/24 07:12:43;;;;;;;13.53;10.17;;;8.30;99.90;;;;;;5024303;28;21037;-47
2021/12/24 07:15:10;;;;;;;16.33;9.10;;;8.40;99.90;;;;;;5019861;28;20505;-47
2021/12/24 07:17:40;;;;;;;17.13;11.13;;;8.40;99.90;;;;;;5015971;28;20485;-47
2021/12/24 07:20:07;;;;;;;13.20;8.10;;;8.40;99.90;;;;;;5009750;28;20500;-47
2021/12/24 07:22:34;;;;;;;15.83;10.07;;;8.30;99.90;;;;;;5026006;28;20530;-48
2021/12/24 07:25:04;;;;;;;14.67;11.00;;;8.30;99.90;;;;;;5022990;28;20482;-47
2021/12/24 07:27:30;;;;;;;15.40;10.53;;;8.30;99.90;;;;;;5017618;28;20492;-47
2021/12/24 07:29:57;;;;;;;19.60;9.40;;;8.30;99.90;;;;;;5016695;28;21252;-48
2021/12/24 07:32:24;;;;;;;16.33;10.23;;;8.40;99.90;;;;;;5049373;28;20480;-48
2021/12/24 07:34:52;;;;;;;14.17;10.00;;;8.40;99.90;;;;;;5021461;28;20473;-47
2021/12/24 07:37:19;;;;;;;15.00;9.90;;;8.50;99.90;;;;;;5006964;28;20498;-47
2021/12/24 07:39:45;;;;;;;15.60;11.30;;;8.40;99.90;;;;;;5019059;28;20535;-47
2021/12/24 07:42:12;;;;;;;13.37;9.13;;;8.30;99.90;;;;;;5023201;28;20488;-47
2021/12/24 07:44:39;;;;;;;11.97;9.50;;;8.30;99.90;;;;;;5023231;28;20501;-48
2021/12/24 07:47:15;;;;;;;15.63;10.13;;;8.40;99.90;;;;;;5020633;28;20488;-47
2021/12/24 07:49:43;;;;;;;15.57;9.70;;;8.30;99.90;;;;;;5016867;28;20584;-47
2021/12/24 07:52:13;;;;;;;15.37;9.97;;;8.30;99.90;;;;;;5029072;28;20489;-48
2021/12/24 07:54:42;;;;;;;14.70;10.33;;;8.30;99.90;;;;;;5019214;28;20485;-48
2021/12/24 07:57:10;;;;;;;10.03;7.17;;;8.30;99.90;;;;;;5043062;28;20911;-47
2021/12/24 07:59:38;;;;;;;15.47;10.77;;;8.30;99.90;;;;;;5015730;28;21024;-48
2021/12/24 08:02:10;;;;;;;10.10;7.77;;;8.30;99.90;;;;;;5017856;28;20479;-47
2021/12/24 08:04:38;;;;;;;13.67;9.57;;;8.20;99.90;;;;;;5004543;28;21243;-47
2021/12/24 08:07:05;;;;;;;12.93;8.90;;;8.20;99.90;;;;;;5000432;28;20485;-47
2021/12/24 08:09:35;;;;;;;13.53;10.30;;;8.20;99.90;;;;;;5010073;28;20783;-47
2021/12/24 08:12:02;;;;;;;15.90;9.93;;;8.20;99.90;;;;;;5017654;28;20490;-47
2021/12/24 08:14:29;;;;;;;12.87;7.37;;;8.30;99.90;;;;;;5013181;28;20540;-48
2021/12/24 08:16:56;;;;;;;20.73;12.00;;;8.20;99.90;;;;;;5020008;28;20475;-48
2021/12/24 08:19:23;;;;;;;12.87;7.20;;;8.30;99.90;;;;;;5020666;28;20485;-47
2021/12/24 08:21:49;;;;;;;16.83;12.83;;;8.30;99.90;;;;;;5021648;28;20620;-48
2021/12/24 08:24:16;;;;;;;18.23;11.23;;;8.30;99.90;;;;;;5020713;28;20499;-48
2021/12/24 08:26:45;;;;;;;15.10;9.63;;;8.30;99.90;;;;;;5019354;28;20486;-51
2021/12/24 08:29:12;;;;;;;14.87;11.87;;;8.30;99.90;;;;;;5021115;28;20489;-47
2021/12/24 08:31:39;;;;;;;14.43;9.77;;;8.30;99.90;;;;;;5017042;28;20502;-47
2021/12/24 08:34:07;;;;;;;14.53;8.30;;;8.30;99.90;;;;;;5020988;28;20480;-47
2021/12/24 08:36:35;;;;;;;19.00;9.70;;;8.30;99.90;;;;;;5020107;28;20477;-48
2021/12/24 08:39:02;;;;;;;17.27;9.47;;;8.40;99.90;;;;;;5016424;28;20513;-47
2021/12/24 08:41:29;;;;;;;14.17;8.80;;;8.40;99.90;;;;;;5030333;28;20484;-47
2021/12/24 08:43:57;;;;;;;12.43;8.40;;;8.40;99.90;;;;;;5021067;28;20528;-48
2021/12/24 08:46:23;;;;;;;20.30;12.40;;;8.40;99.90;;;;;;5017512;28;20478;-48
2021/12/24 08:48:50;;;;;;;13.43;7.80;;;8.40;99.90;;;;;;5021549;28;20985;-49
2021/12/24 08:51:17;;;;;;;16.57;9.37;;;8.40;99.90;;;;;;5026193;28;21083;-47
2021/12/24 08:53:44;;;;;;;18.70;12.27;;;8.50;99.90;;;;;;5022021;28;20506;-48
2021/12/24 08:56:11;;;;;;;16.50;11.57;;;8.50;99.90;;;;;;5024920;28;20506;-47
2021/12/24 08:58:38;;;;;;;13.20;8.67;;;8.50;99.90;;;;;;5021776;28;21059;-47
2021/12/24 09:01:07;;;;;;;16.50;10.17;;;8.40;99.90;;;;;;5019149;28;21024;-48
2021/12/24 09:03:34;;;;;;;15.63;9.83;;;8.50;99.90;;;;;;5010284;28;21044;-47
2021/12/24 09:06:01;;;;;;;10.70;8.43;;;8.60;99.90;;;;;;5028137;28;20775;-47
2021/12/24 09:08:27;;;;;;;10.60;7.07;;;8.50;99.90;;;;;;5018439;28;20474;-47
2021/12/24 09:10:54;;;;;;;14.60;9.67;;;8.50;99.90;;;;;;5028400;28;20549;-47
2021/12/24 09:13:21;;;;;;;13.33;8.50;;;8.50;99.90;;;;;;5020985;28;20487;-47
2021/12/24 09:15:48;;;;;;;14.20;8.83;;;8.50;99.90;;;;;;5018169;28;20482;-47
2021/12/24 09:18:18;;;;;;;17.83;11.70;;;8.50;99.90;;;;;;5020059;28;20548;-48
2021/12/24 09:20:45;;;;;;;14.17;10.57;;;8.50;99.90;;;;;;5011494;28;20456;-48
2021/12/24 09:23:13;;;;;;;15.40;11.43;;;8.50;99.90;;;;;;5021201;28;20490;-48
2021/12/24 09:25:41;;;;;;;16.20;11.70;;;8.50;99.90;;;;;;5016095;28;20501;-47
2021/12/24 09:28:08;;;;;;;13.37;9.13;;;8.50;99.90;;;;;;5006004;28;20503;-48
2021/12/24 09:30:35;;;;;;;18.53;13.40;;;8.50;99.90;;;;;;5029546;28;20539;-48
2021/12/24 09:33:03;;;;;;;14.90;7.10;;;8.50;99.90;;;;;;5018081;28;20494;-47
2021/12/24 09:35:31;;;;;;;10.93;7.97;;;8.50;99.90;;;;;;5025078;28;20479;-47
2021/12/24 09:37:59;;;;;;;8.93;6.10;;;8.50;99.90;;;;;;5030425;28;20548;-47
2021/12/24 09:40:26;;;;;;;10.60;8.73;;;8.50;99.90;;;;;;5011328;28;20495;-47
2021/12/24 09:42:53;;;;;;;12.93;6.63;;;8.50;99.90;;;;;;5005981;28;20481;-45
2021/12/24 09:45:21;;;;;;;15.00;11.17;;;8.50;99.90;;;;;;5005894;28;20481;-47
2021/12/24 09:47:48;;;;;;;13.07;8.37;;;8.40;99.90;;;;;;5014103;28;20974;-46
2021/12/24 09:50:17;;;;;;;12.77;9.77;;;8.40;99.90;;;;;;5027178;28;21015;-47
2021/12/24 09:52:45;;;;;;;15.87;11.53;;;8.50;99.90;;;;;;5018019;28;20524;-45
2021/12/24 09:55:15;;;;;;;14.20;9.20;;;8.50;99.90;;;;;;5026443;28;20555;-45
2021/12/24 09:57:42;;;;;;;19.63;11.30;;;8.50;99.90;;;;;;5016200;28;20490;-46
2021/12/24 10:00:13;;;;;;;18.97;11.37;;;8.50;99.90;;;;;;5003207;28;20485;-45
2021/12/24 10:02:44;;;;;;;6.90;5.80;;;8.50;99.90;;;;;;5047430;28;20477;-45
2021/12/24 10:05:33;;;;;;;14.60;9.80;;;8.50;99.90;;;;;;5025755;28;20478;-46
2021/12/24 10:08:08;;;;;;;11.57;8.20;;;8.50;99.90;;;;;;5013486;28;20614;-46
2021/12/24 10:10:36;;;;;;;13.67;7.90;;;8.60;99.90;;;;;;5015569;28;20481;-46
2021/12/24 10:13:26;;;;;;;22.90;14.20;;;8.50;99.90;;;;;;5005739;28;20487;-46
2021/12/24 10:15:53;;;;;;;16.10;9.30;;;8.60;99.90;;;;;;4999359;28;20551;-46
2021/12/24 10:18:28;;;;;;;16.17;12.33;;;8.60;99.90;;;;;;5030419;28;20867;-47
2021/12/24 10:20:59;;;;;;;20.70;10.30;;;8.60;99.90;;;;;;5003464;28;20473;-45
2021/12/24 10:23:42;;;;;;;16.70;12.73;;;8.70;99.90;;;;;;5015752;28;20489;-46
2021/12/24 10:26:13;;;;;;;19.43;15.50;;;8.70;99.90;;;;;;5019892;28;20505;-46
2021/12/24 10:28:52;;;;;;;20.47;13.83;;;8.70;99.90;;;;;;5019561;28;20478;-45
2021/12/24 10:31:20;;;;;;;15.43;11.73;;;8.70;99.90;;;;;;5012163;28;20489;-46
2021/12/24 10:34:11;;;;;;;16.93;13.50;;;8.70;99.90;;;;;;5019069;28;20485;-46
2021/12/24 10:37:12;;;;;;;16.80;12.80;;;8.70;99.90;;;;;;5010091;28;20896;-46
2021/12/24 10:39:49;;;;;;;16.03;12.07;;;8.80;99.90;;;;;;5013853;28;20481;-46
2021/12/24 10:42:21;;;;;;;14.80;11.47;;;8.90;99.90;;;;;;5016697;28;20657;-45
2021/12/24 10:44:50;;;;;;;18.07;12.97;;;8.80;99.90;;;;;;5013819;28;20746;-46
2021/12/24 10:47:19;;;;;;;16.67;12.30;;;8.90;99.90;;;;;;5010975;28;20521;-46
2021/12/24 10:50:10;;;;;;;12.77;10.50;;;8.90;99.90;;;;;;5011395;28;20500;-46
2021/12/24 10:55:39;;;;;;;10.83;9.53;;;8.90;99.90;;;;;;5015298;28;20491;-45
2021/12/24 10:58:15;;;;;;;13.50;11.43;;;8.90;99.90;;;;;;5011626;28;20474;-46
2021/12/24 11:00:48;;;;;;;11.90;10.47;;;9.00;99.90;;;;;;5023218;28;20478;-46
2021/12/24 11:03:17;;;;;;;11.97;9.50;;;8.90;99.90;;;;;;5022406;28;20541;-46
2021/12/24 11:05:46;;;;;;;17.30;11.00;;;9.00;99.90;;;;;;5018632;28;20492;-45
2021/12/24 11:08:14;;;;;;;18.60;10.57;;;8.90;99.90;;;;;;5022679;28;20480;-46
2021/12/24 11:10:44;;;;;;;20.77;12.30;;;9.00;99.90;;;;;;5022394;28;20486;-46
2021/12/24 11:13:14;;;;;;;6.73;5.10;;;9.00;99.90;;;;;;5011273;28;20548;-46
2021/12/24 11:15:44;;;;;;;10.33;7.80;;;9.00;99.90;;;;;;5003843;28;20889;-45
2021/12/24 11:18:15;;;;;;;12.70;11.40;;;9.00;99.90;;;;;;5029271;28;20901;-46
2021/12/24 11:20:43;;;;;;;5.53;5.00;;;9.00;99.90;;;;;;5005349;28;20480;-46
2021/12/24 11:23:11;;;;;;;9.30;8.37;;;9.00;99.90;;;;;;5045671;28;20475;-46
2021/12/24 11:25:40;;;;;;;12.87;10.60;;;9.00;99.90;;;;;;5022242;28;20497;-46
2021/12/24 11:28:10;;;;;;;11.03;9.83;;;9.00;99.90;;;;;;5025837;28;20557;-46
2021/12/24 11:30:41;;;;;;;16.53;9.63;;;9.10;99.90;;;;;;5024060;28;20491;-45
2021/12/24 11:33:08;;;;;;;12.50;10.30;;;9.10;99.90;;;;;;5021539;28;20483;-46
2021/12/24 11:35:35;;;;;;;12.70;11.07;;;9.20;99.90;;;;;;5027827;28;21192;-46
2021/12/24 11:38:02;;;;;;;15.73;13.13;;;9.20;99.90;;;;;;5008357;28;20532;-46
2021/12/24 11:40:30;;;;;;;17.17;13.63;;;9.20;99.90;;;;;;5031570;28;20473;-46
2021/12/24 11:43:00;;;;;;;16.73;11.50;;;9.20;99.90;;;;;;5018698;28;20557;-46
2021/12/24 11:45:31;;;;;;;13.60;10.40;;;9.20;99.90;;;;;;5017538;28;20476;-46
2021/12/24 11:47:58;;;;;;;15.97;12.33;;;9.20;99.90;;;;;;5015073;28;20838;-46
2021/12/24 11:50:26;;;;;;;15.17;12.53;;;9.30;99.90;;;;;;5021905;28;21006;-46
2021/12/24 11:52:58;;;;;;;16.90;13.97;;;9.30;99.90;;;;;;5015946;28;20854;-46
2021/12/24 11:55:27;;;;;;;9.73;8.73;;;9.20;99.90;;;;;;5001619;28;20588;-52
2021/12/24 11:57:56;;;;;;;17.20;12.93;;;9.20;99.90;;;;;;5005584;28;20491;-46
2021/12/24 12:00:31;;;;;;;15.40;9.50;;;9.20;99.90;;;;;;5015212;28;21159;-46
2021/12/24 12:02:59;;;;;;;17.33;13.70;;;9.20;99.90;;;;;;5023372;28;20481;-46
2021/12/24 12:05:32;;;;;;;16.10;12.20;;;9.20;99.90;;;;;;5026183;28;20521;-46
2021/12/24 12:08:30;;;;;;;12.83;11.03;;;9.30;99.90;;;;;;5008456;28;20502;-45
2021/12/24 12:10:59;;;;;;;15.90;12.00;;;9.20;99.90;;;;;;4978160;28;20552;-45
2021/12/24 12:13:37;;;;;;;15.80;11.40;;;9.20;99.90;;;;;;5030342;28;20483;-46
2021/12/24 12:16:08;;;;;;;13.97;12.43;;;9.20;99.90;;;;;;5010528;28;20488;-45
2021/12/24 12:18:44;;;;;;;10.87;8.10;;;9.20;99.90;;;;;;5007988;28;20532;-45
2021/12/24 12:21:12;;;;;;;11.57;9.20;;;9.20;99.90;;;;;;5007789;28;20486;-46
2021/12/24 12:23:53;;;;;;;8.33;7.20;;;9.30;99.90;;;;;;5032053;28;20473;-46
2021/12/24 12:26:44;;;;;;;12.80;9.50;;;9.30;99.90;;;;;;5021230;28;20794;-45
2021/12/24 12:29:29;;;;;;;7.27;5.67;;;9.40;99.90;;;;;;5007798;28;20470;-45
2021/12/24 12:32:05;;;;;;;12.13;9.40;;;9.30;99.90;;;;;;5004984;28;20551;-45
2021/12/24 12:35:07;;;;;;;13.63;11.40;;;9.20;99.90;;;;;;5013127;28;20484;-45
2021/12/24 12:37:46;;;;;;;15.03;10.60;;;9.20;99.90;;;;;;5009797;28;20519;-45
2021/12/24 12:40:31;;;;;;;14.10;10.97;;;9.30;99.90;;;;;;5015645;28;20486;-45
2021/12/24 12:43:08;;;;;;;16.80;9.33;;;9.30;99.90;;;;;;5037908;28;20487;-45
2021/12/24 12:46:01;;;;;;;13.80;12.00;;;9.30;99.90;;;;;;5040636;28;20472;-45
2021/12/24 12:48:49;;;;;;;16.73;14.70;;;9.20;99.90;;;;;;5045346;28;20521;-46
2021/12/24 12:51:19;;;;;;;16.70;11.40;;;9.30;99.90;;;;;;5025156;28;21161;-45
2021/12/24 12:53:47;;;;;;;11.07;9.00;;;9.30;99.90;;;;;;5025286;28;20927;-45
2021/12/24 12:56:23;;;;;;;10.93;9.43;;;9.40;99.90;;;;;;5017954;28;20485;-45
2021/12/24 12:58:57;;;;;;;17.73;11.60;;;9.40;99.90;;;;;;5018914;28;20540;-46
2021/12/24 13:01:24;;;;;;;14.80;11.63;;;9.50;99.90;;;;;;5024079;28;20496;-45
2021/12/24 13:04:12;;;;;;;9.60;7.50;;;9.50;99.90;;;;;;5028039;28;20479;-46
2021/12/24 13:06:54;;;;;;;9.30;8.30;;;9.50;99.90;;;;;;5036122;28;20500;-45
2021/12/24 13:09:24;;;;;;;9.97;8.67;;;9.50;99.90;;;;;;5020585;28;21317;-45
2021/12/24 13:11:54;;;;;;;10.70;9.07;;;9.60;99.90;;;;;;5017413;28;20525;-45
2021/12/24 13:14:23;;;;;;;12.93;9.40;;;9.50;99.90;;;;;;5011576;28;20967;-45
2021/12/24 13:16:54;;;;;;;12.23;9.43;;;9.50;99.90;;;;;;5021931;28;20729;-46
2021/12/24 13:19:32;;;;;;;6.33;5.73;;;9.60;99.90;;;;;;5023628;28;20489;-45
2021/12/24 13:24:50;;;;;;;7.00;4.67;;;9.60;99.90;;;;;;5045080;28;20474;-45
2021/12/24 13:27:18;;;;;;;6.17;4.97;;;9.50;99.90;;;;;;5024848;28;21037;-45
2021/12/24 13:29:45;;;;;;;7.97;6.63;;;9.50;99.90;;;;;;5021428;28;21310;-45
2021/12/24 13:32:12;;;;;;;10.07;8.97;;;9.50;99.90;;;;;;5023450;28;20866;-45
2021/12/24 13:34:40;;;;;;;6.87;6.20;;;9.50;99.90;;;;;;5021511;28;20576;-45
2021/12/24 13:37:16;;;;;;;7.50;6.30;;;9.40;99.90;;;;;;5028224;28;20480;-45
2021/12/24 13:39:48;;;;;;;8.27;5.97;;;9.60;99.90;;;;;;5027160;28;21440;-45
2021/12/24 13:42:15;;;;;;;4.30;3.37;;;9.50;99.90;;;;;;5018351;28;20492;-45
2021/12/24 13:44:42;;;;;;;4.40;4.00;;;9.60;99.90;;;;;;5036243;28;20835;-44
2021/12/24 13:47:22;;;;;;;7.50;5.50;;;9.50;99.90;;;;;;5021860;28;20488;-45
2021/12/24 13:50:11;;;;;;;4.87;4.47;;;9.60;99.90;;;;;;5023037;28;20833;-45
2021/12/24 13:55:26;;;;;;;5.67;4.87;;;9.50;99.90;;;;;;5040044;28;20543;-45
2021/12/24 13:57:54;;;;;;;6.20;5.10;;;9.60;99.90;;;;;;5045154;28;20898;-45
2021/12/24 14:00:21;;;;;;;4.13;3.80;;;9.50;99.90;;;;;;5021970;28;20488;-45
2021/12/24 14:02:52;;;;;;;4.70;4.07;;;9.60;99.90;;;;;;5035091;28;20544;-45
2021/12/24 14:05:20;;;;;;;5.53;5.03;;;9.60;99.90;;;;;;5019959;28;20527;-45
2021/12/24 14:08:02;;;;;;;5.97;4.63;;;9.60;99.90;;;;;;5000012;28;20992;-45
2021/12/24 14:10:29;;;;;;;5.87;4.93;;;9.60;99.90;;;;;;5023252;28;20488;-45
2021/12/24 14:13:03;;;;;;;5.90;5.40;;;9.60;99.90;;;;;;5018628;28;20856;-45
2021/12/24 14:15:31;;;;;;;5.90;5.30;;;9.70;99.90;;;;;;5010377;28;21169;-45
2021/12/24 14:18:19;;;;;;;4.83;4.33;;;9.60;99.90;;;;;;5019439;28;21025;-45
2021/12/24 14:21:44;;;;;;;5.93;5.27;;;9.70;99.90;;;;;;5021005;28;20921;-45